sensor_id;sensor_type;location;lat;lon;timestamp;P1;durP1;ratioP1;P2;durP2;ratioP2
50012;SDS011;35901;48.694;9.476;2022-12-18T00:03:42;76.03;;;30.03;;
50012;SDS011;35901;48.694;9.476;2022-12-18T00:06:08;69.23;;;28.40;;
50012;SDS011;35901;48.694;9.476;2022-12-18T00:08:34;72.47;;;30.07;;
50012;SDS011;35901;48.694;9.476;2022-12-18T00:11:04;92.87;;;34.03;;
50012;SDS011;35901;48.694;9.476;2022-12-18T00:13:30;104.97;;;35.40;;
50012;SDS011;35901;48.694;9.476;2022-12-18T00:16:00;99.57;;;33.27;;
50012;SDS011;35901;48.694;9.476;2022-12-18T00:18:27;78.90;;;33.00;;
50012;SDS011;35901;48.694;9.476;2022-12-18T00:20:52;83.70;;;30.13;;
50012;SDS011;35901;48.694;9.476;2022-12-18T00:23:18;60.53;;;25.43;;
50012;SDS011;35901;48.694;9.476;2022-12-18T00:25:44;71.47;;;28.93;;
50012;SDS011;35901;48.694;9.476;2022-12-18T00:28:09;139.37;;;32.77;;
50012;SDS011;35901;48.694;9.476;2022-12-18T00:30:35;69.90;;;27.43;;
50012;SDS011;35901;48.694;9.476;2022-12-18T00:33:00;85.70;;;31.20;;
50012;SDS011;35901;48.694;9.476;2022-12-18T00:35:26;77.27;;;30.50;;
50012;SDS011;35901;48.694;9.476;2022-12-18T00:37:52;79.30;;;31.73;;
50012;SDS011;35901;48.694;9.476;2022-12-18T00:40:17;76.37;;;28.30;;
50012;SDS011;35901;48.694;9.476;2022-12-18T00:42:43;121.10;;;32.70;;
50012;SDS011;35901;48.694;9.476;2022-12-18T00:45:21;83.00;;;28.37;;
50012;SDS011;35901;48.694;9.476;2022-12-18T00:47:50;72.23;;;26.90;;
50012;SDS011;35901;48.694;9.476;2022-12-18T00:50:16;86.33;;;31.77;;
50012;SDS011;35901;48.694;9.476;2022-12-18T00:52:42;71.03;;;24.97;;
50012;SDS011;35901;48.694;9.476;2022-12-18T00:55:07;63.33;;;27.30;;
50012;SDS011;35901;48.694;9.476;2022-12-18T00:57:33;84.93;;;29.73;;
50012;SDS011;35901;48.694;9.476;2022-12-18T00:59:59;71.87;;;30.47;;
50012;SDS011;35901;48.694;9.476;2022-12-18T01:02:25;102.47;;;30.97;;
50012;SDS011;35901;48.694;9.476;2022-12-18T01:04:50;85.07;;;31.30;;
50012;SDS011;35901;48.694;9.476;2022-12-18T01:07:18;80.43;;;31.13;;
50012;SDS011;35901;48.694;9.476;2022-12-18T01:09:44;93.23;;;32.67;;
50012;SDS011;35901;48.694;9.476;2022-12-18T01:12:09;102.00;;;33.80;;
50012;SDS011;35901;48.694;9.476;2022-12-18T01:14:35;126.37;;;35.53;;
50012;SDS011;35901;48.694;9.476;2022-12-18T01:17:02;87.03;;;32.70;;
50012;SDS011;35901;48.694;9.476;2022-12-18T01:19:31;72.07;;;27.63;;
50012;SDS011;35901;48.694;9.476;2022-12-18T01:21:57;88.53;;;32.23;;
50012;SDS011;35901;48.694;9.476;2022-12-18T01:24:23;108.37;;;33.97;;
50012;SDS011;35901;48.694;9.476;2022-12-18T01:26:48;99.27;;;33.30;;
50012;SDS011;35901;48.694;9.476;2022-12-18T01:29:14;81.60;;;32.23;;
50012;SDS011;35901;48.694;9.476;2022-12-18T01:31:40;89.67;;;33.50;;
50012;SDS011;35901;48.694;9.476;2022-12-18T01:34:06;164.00;;;37.87;;
50012;SDS011;35901;48.694;9.476;2022-12-18T01:36:34;95.83;;;35.00;;
50012;SDS011;35901;48.694;9.476;2022-12-18T01:39:02;148.60;;;37.70;;
50012;SDS011;35901;48.694;9.476;2022-12-18T01:41:30;127.80;;;35.70;;
50012;SDS011;35901;48.694;9.476;2022-12-18T01:47:15;107.80;;;34.80;;
50012;SDS011;35901;48.694;9.476;2022-12-18T01:49:57;122.50;;;39.23;;
50012;SDS011;35901;48.694;9.476;2022-12-18T01:52:26;123.77;;;36.10;;
50012;SDS011;35901;48.694;9.476;2022-12-18T01:54:57;110.30;;;37.80;;
50012;SDS011;35901;48.694;9.476;2022-12-18T01:57:27;112.10;;;35.33;;
50012;SDS011;35901;48.694;9.476;2022-12-18T01:59:56;120.67;;;38.13;;
50012;SDS011;35901;48.694;9.476;2022-12-18T02:02:26;111.47;;;35.60;;
50012;SDS011;35901;48.694;9.476;2022-12-18T02:04:53;143.43;;;39.33;;
50012;SDS011;35901;48.694;9.476;2022-12-18T02:07:23;130.20;;;37.93;;
50012;SDS011;35901;48.694;9.476;2022-12-18T02:10:06;108.17;;;32.93;;
50012;SDS011;35901;48.694;9.476;2022-12-18T02:12:48;81.47;;;34.97;;
50012;SDS011;35901;48.694;9.476;2022-12-18T02:15:36;83.07;;;32.23;;
50012;SDS011;35901;48.694;9.476;2022-12-18T02:18:11;80.53;;;30.30;;
50012;SDS011;35901;48.694;9.476;2022-12-18T02:27:04;83.60;;;30.93;;
50012;SDS011;35901;48.694;9.476;2022-12-18T02:29:39;83.77;;;30.23;;
50012;SDS011;35901;48.694;9.476;2022-12-18T02:32:18;72.90;;;29.77;;
50012;SDS011;35901;48.694;9.476;2022-12-18T02:34:48;93.40;;;32.60;;
50012;SDS011;35901;48.694;9.476;2022-12-18T02:37:16;83.13;;;30.90;;
50012;SDS011;35901;48.694;9.476;2022-12-18T02:39:46;111.67;;;30.07;;
50012;SDS011;35901;48.694;9.476;2022-12-18T02:42:14;124.20;;;36.97;;
50012;SDS011;35901;48.694;9.476;2022-12-18T02:44:46;132.57;;;38.10;;
50012;SDS011;35901;48.694;9.476;2022-12-18T02:47:18;142.43;;;38.50;;
50012;SDS011;35901;48.694;9.476;2022-12-18T02:58:41;98.50;;;33.00;;
50012;SDS011;35901;48.694;9.476;2022-12-18T03:01:38;119.23;;;34.13;;
50012;SDS011;35901;48.694;9.476;2022-12-18T03:04:17;97.23;;;33.27;;
50012;SDS011;35901;48.694;9.476;2022-12-18T03:06:53;82.63;;;29.80;;
50012;SDS011;35901;48.694;9.476;2022-12-18T03:09:35;70.03;;;27.93;;
50012;SDS011;35901;48.694;9.476;2022-12-18T03:14:59;70.27;;;26.03;;
50012;SDS011;35901;48.694;9.476;2022-12-18T03:17:57;73.57;;;27.17;;
50012;SDS011;35901;48.694;9.476;2022-12-18T03:20:30;91.80;;;30.17;;
50012;SDS011;35901;48.694;9.476;2022-12-18T03:22:59;84.87;;;25.53;;
50012;SDS011;35901;48.694;9.476;2022-12-18T03:25:32;97.83;;;31.37;;
50012;SDS011;35901;48.694;9.476;2022-12-18T03:28:01;105.57;;;32.73;;
50012;SDS011;35901;48.694;9.476;2022-12-18T03:30:34;99.23;;;32.10;;
50012;SDS011;35901;48.694;9.476;2022-12-18T03:33:19;86.37;;;29.90;;
50012;SDS011;35901;48.694;9.476;2022-12-18T03:35:53;87.07;;;29.77;;
50012;SDS011;35901;48.694;9.476;2022-12-18T03:38:19;72.53;;;26.00;;
50012;SDS011;35901;48.694;9.476;2022-12-18T03:43:19;63.73;;;23.23;;
50012;SDS011;35901;48.694;9.476;2022-12-18T03:46:00;63.73;;;22.50;;
50012;SDS011;35901;48.694;9.476;2022-12-18T03:48:41;71.40;;;25.60;;
50012;SDS011;35901;48.694;9.476;2022-12-18T03:51:22;102.67;;;29.60;;
50012;SDS011;35901;48.694;9.476;2022-12-18T03:54:08;88.77;;;28.90;;
50012;SDS011;35901;48.694;9.476;2022-12-18T03:56:42;97.90;;;28.63;;
50012;SDS011;35901;48.694;9.476;2022-12-18T03:59:13;90.80;;;30.43;;
50012;SDS011;35901;48.694;9.476;2022-12-18T04:01:43;87.73;;;29.67;;
50012;SDS011;35901;48.694;9.476;2022-12-18T04:04:15;80.00;;;28.97;;
50012;SDS011;35901;48.694;9.476;2022-12-18T04:06:45;81.97;;;29.70;;
50012;SDS011;35901;48.694;9.476;2022-12-18T04:09:22;70.70;;;25.63;;
50012;SDS011;35901;48.694;9.476;2022-12-18T04:11:52;71.17;;;25.63;;
50012;SDS011;35901;48.694;9.476;2022-12-18T04:14:18;72.83;;;26.13;;
50012;SDS011;35901;48.694;9.476;2022-12-18T04:16:47;64.13;;;24.87;;
50012;SDS011;35901;48.694;9.476;2022-12-18T04:19:15;75.10;;;24.47;;
50012;SDS011;35901;48.694;9.476;2022-12-18T04:21:43;70.97;;;26.50;;
50012;SDS011;35901;48.694;9.476;2022-12-18T04:24:10;65.73;;;24.20;;
50012;SDS011;35901;48.694;9.476;2022-12-18T04:26:40;61.43;;;23.83;;
50012;SDS011;35901;48.694;9.476;2022-12-18T04:29:20;47.03;;;18.77;;
50012;SDS011;35901;48.694;9.476;2022-12-18T04:31:46;51.13;;;20.17;;
50012;SDS011;35901;48.694;9.476;2022-12-18T04:34:12;50.50;;;20.83;;
50012;SDS011;35901;48.694;9.476;2022-12-18T04:36:46;64.13;;;22.20;;
50012;SDS011;35901;48.694;9.476;2022-12-18T04:39:12;61.33;;;21.80;;
50012;SDS011;35901;48.694;9.476;2022-12-18T04:41:38;56.43;;;21.47;;
50012;SDS011;35901;48.694;9.476;2022-12-18T04:44:04;56.23;;;20.67;;
50012;SDS011;35901;48.694;9.476;2022-12-18T04:46:30;50.37;;;19.80;;
50012;SDS011;35901;48.694;9.476;2022-12-18T04:48:55;48.23;;;18.63;;
50012;SDS011;35901;48.694;9.476;2022-12-18T04:51:21;61.43;;;20.47;;
50012;SDS011;35901;48.694;9.476;2022-12-18T04:53:47;39.03;;;14.77;;
50012;SDS011;35901;48.694;9.476;2022-12-18T04:56:17;33.17;;;14.33;;
50012;SDS011;35901;48.694;9.476;2022-12-18T04:58:43;50.63;;;18.30;;
50012;SDS011;35901;48.694;9.476;2022-12-18T05:01:10;43.00;;;17.73;;
50012;SDS011;35901;48.694;9.476;2022-12-18T05:03:37;35.97;;;15.17;;
50012;SDS011;35901;48.694;9.476;2022-12-18T05:06:03;56.37;;;22.00;;
50012;SDS011;35901;48.694;9.476;2022-12-18T05:08:30;68.80;;;24.23;;
50012;SDS011;35901;48.694;9.476;2022-12-18T05:10:59;59.07;;;23.00;;
50012;SDS011;35901;48.694;9.476;2022-12-18T05:13:25;51.27;;;21.27;;
50012;SDS011;35901;48.694;9.476;2022-12-18T05:15:52;62.30;;;23.60;;
50012;SDS011;35901;48.694;9.476;2022-12-18T05:18:18;54.50;;;22.27;;
50012;SDS011;35901;48.694;9.476;2022-12-18T05:20:43;67.30;;;24.23;;
50012;SDS011;35901;48.694;9.476;2022-12-18T05:23:09;64.93;;;23.63;;
50012;SDS011;35901;48.694;9.476;2022-12-18T05:25:35;67.63;;;25.77;;
50012;SDS011;35901;48.694;9.476;2022-12-18T05:28:00;66.03;;;24.67;;
50012;SDS011;35901;48.694;9.476;2022-12-18T05:30:26;58.57;;;21.10;;
50012;SDS011;35901;48.694;9.476;2022-12-18T05:32:52;58.47;;;21.87;;
50012;SDS011;35901;48.694;9.476;2022-12-18T05:35:18;55.07;;;21.83;;
50012;SDS011;35901;48.694;9.476;2022-12-18T05:37:44;44.00;;;19.47;;
50012;SDS011;35901;48.694;9.476;2022-12-18T05:40:10;53.27;;;20.77;;
50012;SDS011;35901;48.694;9.476;2022-12-18T05:42:36;56.83;;;22.10;;
50012;SDS011;35901;48.694;9.476;2022-12-18T05:45:02;51.97;;;21.23;;
50012;SDS011;35901;48.694;9.476;2022-12-18T05:47:28;53.97;;;18.77;;
50012;SDS011;35901;48.694;9.476;2022-12-18T05:49:54;44.27;;;16.83;;
50012;SDS011;35901;48.694;9.476;2022-12-18T05:52:20;66.43;;;22.57;;
50012;SDS011;35901;48.694;9.476;2022-12-18T05:54:46;39.07;;;15.97;;
50012;SDS011;35901;48.694;9.476;2022-12-18T05:57:11;34.80;;;13.97;;
50012;SDS011;35901;48.694;9.476;2022-12-18T05:59:37;35.77;;;15.23;;
50012;SDS011;35901;48.694;9.476;2022-12-18T06:02:03;45.03;;;16.23;;
50012;SDS011;35901;48.694;9.476;2022-12-18T06:04:28;44.23;;;17.80;;
50012;SDS011;35901;48.694;9.476;2022-12-18T06:06:55;44.80;;;16.87;;
50012;SDS011;35901;48.694;9.476;2022-12-18T06:09:21;43.00;;;16.07;;
50012;SDS011;35901;48.694;9.476;2022-12-18T06:11:47;36.63;;;15.60;;
50012;SDS011;35901;48.694;9.476;2022-12-18T06:14:12;42.80;;;17.50;;
50012;SDS011;35901;48.694;9.476;2022-12-18T06:16:38;49.43;;;21.10;;
50012;SDS011;35901;48.694;9.476;2022-12-18T06:19:04;50.27;;;17.80;;
50012;SDS011;35901;48.694;9.476;2022-12-18T06:21:30;42.97;;;16.70;;
50012;SDS011;35901;48.694;9.476;2022-12-18T06:23:56;44.23;;;16.73;;
50012;SDS011;35901;48.694;9.476;2022-12-18T06:26:22;40.03;;;16.60;;
50012;SDS011;35901;48.694;9.476;2022-12-18T06:28:48;37.90;;;14.17;;
50012;SDS011;35901;48.694;9.476;2022-12-18T06:31:14;31.77;;;13.10;;
50012;SDS011;35901;48.694;9.476;2022-12-18T06:33:40;25.83;;;11.20;;
50012;SDS011;35901;48.694;9.476;2022-12-18T06:36:07;41.10;;;16.07;;
50012;SDS011;35901;48.694;9.476;2022-12-18T06:38:35;48.70;;;17.83;;
50012;SDS011;35901;48.694;9.476;2022-12-18T06:41:06;43.60;;;17.73;;
50012;SDS011;35901;48.694;9.476;2022-12-18T06:43:33;45.83;;;16.17;;
50012;SDS011;35901;48.694;9.476;2022-12-18T06:45:59;54.37;;;20.93;;
50012;SDS011;35901;48.694;9.476;2022-12-18T06:48:25;59.30;;;23.07;;
50012;SDS011;35901;48.694;9.476;2022-12-18T06:50:51;60.27;;;21.73;;
50012;SDS011;35901;48.694;9.476;2022-12-18T06:53:17;52.73;;;21.50;;
50012;SDS011;35901;48.694;9.476;2022-12-18T06:55:43;47.63;;;19.87;;
50012;SDS011;35901;48.694;9.476;2022-12-18T06:58:08;52.00;;;18.03;;
50012;SDS011;35901;48.694;9.476;2022-12-18T07:00:34;53.40;;;20.87;;
50012;SDS011;35901;48.694;9.476;2022-12-18T07:03:00;58.13;;;21.90;;
50012;SDS011;35901;48.694;9.476;2022-12-18T07:05:26;60.43;;;23.70;;
50012;SDS011;35901;48.694;9.476;2022-12-18T07:07:51;53.17;;;21.37;;
50012;SDS011;35901;48.694;9.476;2022-12-18T07:10:17;46.53;;;19.00;;
50012;SDS011;35901;48.694;9.476;2022-12-18T07:12:43;46.57;;;17.80;;
50012;SDS011;35901;48.694;9.476;2022-12-18T07:15:09;51.37;;;18.07;;
50012;SDS011;35901;48.694;9.476;2022-12-18T07:17:35;47.13;;;18.67;;
50012;SDS011;35901;48.694;9.476;2022-12-18T07:20:00;38.67;;;13.53;;
50012;SDS011;35901;48.694;9.476;2022-12-18T07:22:26;39.37;;;18.07;;
50012;SDS011;35901;48.694;9.476;2022-12-18T07:24:52;44.97;;;19.03;;
50012;SDS011;35901;48.694;9.476;2022-12-18T07:27:18;41.70;;;15.20;;
50012;SDS011;35901;48.694;9.476;2022-12-18T07:29:44;40.93;;;15.10;;
50012;SDS011;35901;48.694;9.476;2022-12-18T07:32:09;52.80;;;18.53;;
50012;SDS011;35901;48.694;9.476;2022-12-18T07:34:35;46.93;;;17.37;;
50012;SDS011;35901;48.694;9.476;2022-12-18T07:37:01;39.50;;;15.70;;
50012;SDS011;35901;48.694;9.476;2022-12-18T07:39:27;45.97;;;17.30;;
50012;SDS011;35901;48.694;9.476;2022-12-18T07:41:53;37.90;;;16.27;;
50012;SDS011;35901;48.694;9.476;2022-12-18T07:44:38;35.60;;;14.10;;
50012;SDS011;35901;48.694;9.476;2022-12-18T07:47:04;45.00;;;17.53;;
50012;SDS011;35901;48.694;9.476;2022-12-18T07:49:30;39.77;;;16.80;;
50012;SDS011;35901;48.694;9.476;2022-12-18T07:51:56;49.57;;;19.37;;
50012;SDS011;35901;48.694;9.476;2022-12-18T07:54:22;52.73;;;21.63;;
50012;SDS011;35901;48.694;9.476;2022-12-18T07:56:48;55.27;;;22.30;;
50012;SDS011;35901;48.694;9.476;2022-12-18T07:59:14;51.10;;;21.83;;
50012;SDS011;35901;48.694;9.476;2022-12-18T08:01:40;49.97;;;22.07;;
50012;SDS011;35901;48.694;9.476;2022-12-18T08:04:05;53.13;;;22.93;;
50012;SDS011;35901;48.694;9.476;2022-12-18T08:06:31;49.50;;;21.53;;
50012;SDS011;35901;48.694;9.476;2022-12-18T08:08:57;43.53;;;20.63;;
50012;SDS011;35901;48.694;9.476;2022-12-18T08:11:24;45.57;;;20.57;;
50012;SDS011;35901;48.694;9.476;2022-12-18T08:13:51;48.90;;;21.37;;
50012;SDS011;35901;48.694;9.476;2022-12-18T08:16:17;50.43;;;22.00;;
50012;SDS011;35901;48.694;9.476;2022-12-18T08:18:43;42.50;;;20.53;;
50012;SDS011;35901;48.694;9.476;2022-12-18T08:21:09;48.80;;;21.70;;
50012;SDS011;35901;48.694;9.476;2022-12-18T08:23:42;54.03;;;25.37;;
50012;SDS011;35901;48.694;9.476;2022-12-18T08:26:08;53.17;;;23.23;;
50012;SDS011;35901;48.694;9.476;2022-12-18T08:28:34;48.47;;;24.20;;
50012;SDS011;35901;48.694;9.476;2022-12-18T08:31:00;52.17;;;24.87;;
50012;SDS011;35901;48.694;9.476;2022-12-18T08:33:26;51.73;;;25.53;;
50012;SDS011;35901;48.694;9.476;2022-12-18T08:35:52;55.03;;;24.90;;
50012;SDS011;35901;48.694;9.476;2022-12-18T08:38:18;57.40;;;27.90;;
50012;SDS011;35901;48.694;9.476;2022-12-18T08:40:44;56.83;;;27.00;;
50012;SDS011;35901;48.694;9.476;2022-12-18T08:43:10;57.80;;;27.53;;
50012;SDS011;35901;48.694;9.476;2022-12-18T08:45:54;60.40;;;28.13;;
50012;SDS011;35901;48.694;9.476;2022-12-18T08:48:20;58.07;;;28.33;;
50012;SDS011;35901;48.694;9.476;2022-12-18T08:50:55;55.90;;;25.97;;
50012;SDS011;35901;48.694;9.476;2022-12-18T08:53:25;55.83;;;26.53;;
50012;SDS011;35901;48.694;9.476;2022-12-18T08:55:52;57.40;;;28.37;;
50012;SDS011;35901;48.694;9.476;2022-12-18T08:58:18;55.90;;;27.17;;
50012;SDS011;35901;48.694;9.476;2022-12-18T09:00:44;53.17;;;27.53;;
50012;SDS011;35901;48.694;9.476;2022-12-18T09:03:14;54.87;;;28.70;;
50012;SDS011;35901;48.694;9.476;2022-12-18T09:05:41;51.27;;;26.10;;
50012;SDS011;35901;48.694;9.476;2022-12-18T09:08:07;51.07;;;27.47;;
50012;SDS011;35901;48.694;9.476;2022-12-18T09:10:34;54.17;;;28.07;;
50012;SDS011;35901;48.694;9.476;2022-12-18T09:13:05;58.77;;;29.57;;
50012;SDS011;35901;48.694;9.476;2022-12-18T09:15:31;58.37;;;29.13;;
50012;SDS011;35901;48.694;9.476;2022-12-18T09:17:57;53.47;;;27.93;;
50012;SDS011;35901;48.694;9.476;2022-12-18T09:20:22;55.97;;;27.90;;
50012;SDS011;35901;48.694;9.476;2022-12-18T09:22:49;54.20;;;28.13;;
50012;SDS011;35901;48.694;9.476;2022-12-18T09:25:15;50.00;;;27.97;;
50012;SDS011;35901;48.694;9.476;2022-12-18T09:27:41;50.87;;;27.50;;
50012;SDS011;35901;48.694;9.476;2022-12-18T09:30:07;44.80;;;25.70;;
50012;SDS011;35901;48.694;9.476;2022-12-18T09:32:33;44.37;;;25.47;;
50012;SDS011;35901;48.694;9.476;2022-12-18T09:34:58;44.57;;;25.40;;
50012;SDS011;35901;48.694;9.476;2022-12-18T09:37:24;43.70;;;24.93;;
50012;SDS011;35901;48.694;9.476;2022-12-18T09:39:50;44.33;;;25.13;;
50012;SDS011;35901;48.694;9.476;2022-12-18T09:42:22;45.93;;;25.87;;
50012;SDS011;35901;48.694;9.476;2022-12-18T09:44:53;46.10;;;26.37;;
50012;SDS011;35901;48.694;9.476;2022-12-18T09:47:27;46.30;;;27.77;;
50012;SDS011;35901;48.694;9.476;2022-12-18T09:49:59;42.67;;;26.57;;
50012;SDS011;35901;48.694;9.476;2022-12-18T09:55:11;51.00;;;29.30;;
50012;SDS011;35901;48.694;9.476;2022-12-18T09:57:40;47.13;;;29.67;;
50012;SDS011;35901;48.694;9.476;2022-12-18T10:02:43;47.73;;;29.03;;
50012;SDS011;35901;48.694;9.476;2022-12-18T10:07:53;48.50;;;29.90;;
50012;SDS011;35901;48.694;9.476;2022-12-18T10:10:57;45.67;;;29.10;;
50012;SDS011;35901;48.694;9.476;2022-12-18T10:16:36;41.23;;;27.10;;
50012;SDS011;35901;48.694;9.476;2022-12-18T10:22:19;44.73;;;27.37;;
50012;SDS011;35901;48.694;9.476;2022-12-18T10:27:23;42.57;;;28.67;;
50012;SDS011;35901;48.694;9.476;2022-12-18T10:29:51;45.17;;;28.90;;
50012;SDS011;35901;48.694;9.476;2022-12-18T10:32:18;45.43;;;28.80;;
50012;SDS011;35901;48.694;9.476;2022-12-18T10:34:49;43.40;;;28.17;;
50012;SDS011;35901;48.694;9.476;2022-12-18T10:37:17;43.13;;;28.93;;
50012;SDS011;35901;48.694;9.476;2022-12-18T10:39:45;45.20;;;29.90;;
50012;SDS011;35901;48.694;9.476;2022-12-18T10:42:30;44.43;;;28.30;;
50012;SDS011;35901;48.694;9.476;2022-12-18T10:45:08;44.00;;;28.20;;
50012;SDS011;35901;48.694;9.476;2022-12-18T10:47:34;46.23;;;28.27;;
50012;SDS011;35901;48.694;9.476;2022-12-18T10:50:00;40.80;;;26.90;;
50012;SDS011;35901;48.694;9.476;2022-12-18T10:52:26;42.97;;;26.63;;
50012;SDS011;35901;48.694;9.476;2022-12-18T10:54:54;40.17;;;28.63;;
50012;SDS011;35901;48.694;9.476;2022-12-18T11:00:21;38.37;;;27.30;;
50012;SDS011;35901;48.694;9.476;2022-12-18T11:02:49;38.63;;;27.47;;
50012;SDS011;35901;48.694;9.476;2022-12-18T11:05:26;38.20;;;27.20;;
50012;SDS011;35901;48.694;9.476;2022-12-18T11:07:52;37.43;;;25.87;;
50012;SDS011;35901;48.694;9.476;2022-12-18T11:10:22;40.07;;;28.10;;
50012;SDS011;35901;48.694;9.476;2022-12-18T11:13:20;41.90;;;27.30;;
50012;SDS011;35901;48.694;9.476;2022-12-18T11:15:48;37.67;;;26.90;;
50012;SDS011;35901;48.694;9.476;2022-12-18T11:18:18;36.97;;;26.97;;
50012;SDS011;35901;48.694;9.476;2022-12-18T11:20:51;39.07;;;26.87;;
50012;SDS011;35901;48.694;9.476;2022-12-18T11:23:19;37.67;;;26.53;;
50012;SDS011;35901;48.694;9.476;2022-12-18T11:25:55;38.60;;;27.63;;
50012;SDS011;35901;48.694;9.476;2022-12-18T11:28:34;37.63;;;27.90;;
50012;SDS011;35901;48.694;9.476;2022-12-18T11:36:51;38.47;;;27.43;;
50012;SDS011;35901;48.694;9.476;2022-12-18T11:41:56;37.73;;;27.40;;
50012;SDS011;35901;48.694;9.476;2022-12-18T11:44:55;37.20;;;26.83;;
50012;SDS011;35901;48.694;9.476;2022-12-18T11:49:55;37.73;;;26.43;;
50012;SDS011;35901;48.694;9.476;2022-12-18T11:52:26;38.67;;;27.50;;
50012;SDS011;35901;48.694;9.476;2022-12-18T11:54:58;34.83;;;26.07;;
50012;SDS011;35901;48.694;9.476;2022-12-18T11:57:41;35.73;;;26.20;;
50012;SDS011;35901;48.694;9.476;2022-12-18T12:00:41;32.93;;;25.37;;
50012;SDS011;35901;48.694;9.476;2022-12-18T12:06:24;39.03;;;29.23;;
50012;SDS011;35901;48.694;9.476;2022-12-18T12:09:06;40.43;;;30.03;;
50012;SDS011;35901;48.694;9.476;2022-12-18T12:11:43;37.40;;;27.87;;
50012;SDS011;35901;48.694;9.476;2022-12-18T12:15:04;38.27;;;28.13;;
50012;SDS011;35901;48.694;9.476;2022-12-18T12:17:38;38.23;;;27.93;;
50012;SDS011;35901;48.694;9.476;2022-12-18T12:23:27;27.83;;;17.77;;
50012;SDS011;35901;48.694;9.476;2022-12-18T12:26:12;32.57;;;21.33;;
50012;SDS011;35901;48.694;9.476;2022-12-18T12:34:10;31.83;;;19.80;;
50012;SDS011;35901;48.694;9.476;2022-12-18T12:39:47;32.30;;;19.10;;
50012;SDS011;35901;48.694;9.476;2022-12-18T12:42:23;34.20;;;18.30;;
50012;SDS011;35901;48.694;9.476;2022-12-18T12:45:21;32.07;;;17.77;;
50012;SDS011;35901;48.694;9.476;2022-12-18T12:47:53;30.40;;;18.13;;
50012;SDS011;35901;48.694;9.476;2022-12-18T12:50:21;30.97;;;17.27;;
50012;SDS011;35901;48.694;9.476;2022-12-18T12:52:50;35.90;;;17.67;;
50012;SDS011;35901;48.694;9.476;2022-12-18T12:55:28;36.53;;;19.50;;
50012;SDS011;35901;48.694;9.476;2022-12-18T12:58:06;26.30;;;13.50;;
50012;SDS011;35901;48.694;9.476;2022-12-18T13:01:04;34.10;;;19.13;;
50012;SDS011;35901;48.694;9.476;2022-12-18T13:03:44;35.67;;;20.33;;
50012;SDS011;35901;48.694;9.476;2022-12-18T13:06:28;36.37;;;19.33;;
50012;SDS011;35901;48.694;9.476;2022-12-18T13:09:02;32.93;;;18.47;;
50012;SDS011;35901;48.694;9.476;2022-12-18T13:11:36;33.07;;;19.20;;
50012;SDS011;35901;48.694;9.476;2022-12-18T13:14:26;34.33;;;19.50;;
50012;SDS011;35901;48.694;9.476;2022-12-18T13:19:39;34.67;;;20.77;;
50012;SDS011;35901;48.694;9.476;2022-12-18T13:22:12;33.90;;;19.03;;
50012;SDS011;35901;48.694;9.476;2022-12-18T13:24:47;34.17;;;18.10;;
50012;SDS011;35901;48.694;9.476;2022-12-18T13:27:57;37.13;;;19.20;;
50012;SDS011;35901;48.694;9.476;2022-12-18T13:40:57;36.53;;;20.17;;
50012;SDS011;35901;48.694;9.476;2022-12-18T13:46:04;36.97;;;19.37;;
50012;SDS011;35901;48.694;9.476;2022-12-18T13:48:34;39.57;;;19.43;;
50012;SDS011;35901;48.694;9.476;2022-12-18T13:51:04;35.00;;;18.50;;
50012;SDS011;35901;48.694;9.476;2022-12-18T13:53:51;38.43;;;21.70;;
50012;SDS011;35901;48.694;9.476;2022-12-18T13:56:21;40.60;;;21.13;;
50012;SDS011;35901;48.694;9.476;2022-12-18T13:59:24;39.10;;;20.67;;
50012;SDS011;35901;48.694;9.476;2022-12-18T14:02:13;37.23;;;18.67;;
50012;SDS011;35901;48.694;9.476;2022-12-18T14:04:40;37.17;;;20.17;;
50012;SDS011;35901;48.694;9.476;2022-12-18T14:07:19;37.03;;;19.07;;
50012;SDS011;35901;48.694;9.476;2022-12-18T14:10:11;36.30;;;19.17;;
50012;SDS011;35901;48.694;9.476;2022-12-18T14:12:38;39.53;;;19.67;;
50012;SDS011;35901;48.694;9.476;2022-12-18T14:17:56;36.00;;;19.87;;
50012;SDS011;35901;48.694;9.476;2022-12-18T14:20:28;38.27;;;19.20;;
50012;SDS011;35901;48.694;9.476;2022-12-18T14:22:57;39.83;;;20.97;;
50012;SDS011;35901;48.694;9.476;2022-12-18T14:25:27;37.27;;;19.57;;
50012;SDS011;35901;48.694;9.476;2022-12-18T14:30:32;40.40;;;20.67;;
50012;SDS011;35901;48.694;9.476;2022-12-18T14:35:33;36.90;;;19.47;;
50012;SDS011;35901;48.694;9.476;2022-12-18T14:38:11;38.17;;;20.70;;
50012;SDS011;35901;48.694;9.476;2022-12-18T14:40:44;38.77;;;21.10;;
50012;SDS011;35901;48.694;9.476;2022-12-18T14:43:10;41.23;;;21.47;;
50012;SDS011;35901;48.694;9.476;2022-12-18T14:45:37;38.67;;;20.67;;
50012;SDS011;35901;48.694;9.476;2022-12-18T14:50:40;41.10;;;21.47;;
50012;SDS011;35901;48.694;9.476;2022-12-18T14:53:16;36.40;;;18.70;;
50012;SDS011;35901;48.694;9.476;2022-12-18T14:55:48;36.77;;;18.70;;
50012;SDS011;35901;48.694;9.476;2022-12-18T14:58:15;37.60;;;19.93;;
50012;SDS011;35901;48.694;9.476;2022-12-18T15:00:43;34.93;;;18.77;;
50012;SDS011;35901;48.694;9.476;2022-12-18T15:03:17;34.73;;;18.53;;
50012;SDS011;35901;48.694;9.476;2022-12-18T15:05:45;38.70;;;19.80;;
50012;SDS011;35901;48.694;9.476;2022-12-18T15:08:31;34.13;;;18.93;;
50012;SDS011;35901;48.694;9.476;2022-12-18T15:11:01;37.83;;;19.43;;
50012;SDS011;35901;48.694;9.476;2022-12-18T15:13:26;36.10;;;18.63;;
50012;SDS011;35901;48.694;9.476;2022-12-18T15:15:53;35.83;;;18.43;;
50012;SDS011;35901;48.694;9.476;2022-12-18T15:18:29;38.73;;;19.77;;
50012;SDS011;35901;48.694;9.476;2022-12-18T15:20:58;34.83;;;18.23;;
50012;SDS011;35901;48.694;9.476;2022-12-18T15:23:35;41.30;;;20.63;;
50012;SDS011;35901;48.694;9.476;2022-12-18T15:26:11;40.20;;;20.37;;
50012;SDS011;35901;48.694;9.476;2022-12-18T15:33:39;40.17;;;20.53;;
50012;SDS011;35901;48.694;9.476;2022-12-18T15:36:14;44.93;;;19.83;;
50012;SDS011;35901;48.694;9.476;2022-12-18T15:38:41;43.87;;;17.93;;
50012;SDS011;35901;48.694;9.476;2022-12-18T15:41:12;37.37;;;17.83;;
50012;SDS011;35901;48.694;9.476;2022-12-18T15:43:39;37.63;;;18.30;;
50012;SDS011;35901;48.694;9.476;2022-12-18T15:46:11;38.83;;;18.70;;
50012;SDS011;35901;48.694;9.476;2022-12-18T15:48:39;36.63;;;16.17;;
50012;SDS011;35901;48.694;9.476;2022-12-18T15:53:45;43.57;;;21.40;;
50012;SDS011;35901;48.694;9.476;2022-12-18T15:56:12;37.63;;;19.73;;
50012;SDS011;35901;48.694;9.476;2022-12-18T15:58:59;36.17;;;18.73;;
50012;SDS011;35901;48.694;9.476;2022-12-18T16:01:27;40.57;;;20.17;;
50012;SDS011;35901;48.694;9.476;2022-12-18T16:03:54;41.67;;;19.77;;
50012;SDS011;35901;48.694;9.476;2022-12-18T16:06:21;41.53;;;19.73;;
50012;SDS011;35901;48.694;9.476;2022-12-18T16:08:57;44.93;;;21.33;;
50012;SDS011;35901;48.694;9.476;2022-12-18T16:11:24;52.23;;;23.73;;
50012;SDS011;35901;48.694;9.476;2022-12-18T16:16:39;52.70;;;21.57;;
50012;SDS011;35901;48.694;9.476;2022-12-18T16:19:04;51.13;;;21.93;;
50012;SDS011;35901;48.694;9.476;2022-12-18T16:21:30;51.67;;;21.47;;
50012;SDS011;35901;48.694;9.476;2022-12-18T16:23:56;46.97;;;21.40;;
50012;SDS011;35901;48.694;9.476;2022-12-18T16:26:22;48.87;;;21.10;;
50012;SDS011;35901;48.694;9.476;2022-12-18T16:28:47;51.30;;;21.57;;